Time;durP1;ratioP1;P1;durP2;ratioP2;P2;SDS_P1;SDS_P2;PMS_P1;PMS_P2;Temp;Humidity;BMP_temperature;BMP_pressure;BME280_temperature;BME280_humidity;BME280_pressure;Samples;Min_cycle;Max_cycle;Signal;HPM_P1;HPM_P2
2022/07/22 00:02:22;;;;;;;26.65;17.08;;;16.60;99.90;;;;;;5035902;28;19908;-88
2022/07/22 00:04:48;;;;;;;25.15;16.60;;;16.40;99.90;;;;;;5035416;28;20029;-87
2022/07/22 00:07:14;;;;;;;26.02;16.73;;;16.40;99.90;;;;;;5035789;28;20413;-87
2022/07/22 00:09:49;;;;;;;24.83;16.77;;;16.40;99.90;;;;;;5035451;28;20029;-88
2022/07/22 00:12:15;;;;;;;24.38;16.55;;;16.40;99.90;;;;;;5036610;28;20037;-88
2022/07/22 00:14:41;;;;;;;24.98;16.40;;;16.30;99.90;;;;;;5036402;28;20035;-87
2022/07/22 00:17:07;;;;;;;23.17;16.90;;;16.30;99.90;;;;;;5037297;28;20413;-88
2022/07/22 00:19:34;;;;;;;24.75;14.80;;;16.30;99.90;;;;;;5035448;28;20039;-87
2022/07/22 00:22:09;;;;;;;20.60;16.27;;;16.30;99.90;;;;;;5053116;28;20380;-87
2022/07/22 00:24:35;;;;;;;22.55;16.23;;;16.20;99.90;;;;;;5035443;28;20037;-88
2022/07/22 00:27:00;;;;;;;27.17;17.63;;;16.20;99.90;;;;;;5035850;28;20037;-89
2022/07/22 00:29:26;;;;;;;28.40;16.60;;;16.20;99.90;;;;;;5058440;28;20388;-90
2022/07/22 00:31:52;;;;;;;26.35;17.63;;;16.10;99.90;;;;;;5052690;28;20032;-88
2022/07/22 00:34:24;;;;;;;23.85;16.73;;;16.10;99.90;;;;;;5034926;28;20111;-86
2022/07/22 00:36:51;;;;;;;28.02;18.08;;;16.10;99.90;;;;;;5035615;28;20109;-88
2022/07/22 00:39:23;;;;;;;20.70;16.40;;;16.10;99.90;;;;;;5035327;28;20239;-88
2022/07/22 00:41:49;;;;;;;27.00;17.02;;;16.10;99.90;;;;;;5035611;28;20041;-89
2022/07/22 00:44:22;;;;;;;26.48;18.02;;;16.10;99.90;;;;;;5035298;28;20017;-88
2022/07/22 00:46:48;;;;;;;24.15;17.33;;;16.10;99.90;;;;;;5034711;28;20052;-87
2022/07/22 00:49:14;;;;;;;21.85;16.48;;;16.00;99.90;;;;;;5051594;28;20059;-87
2022/07/22 00:51:40;;;;;;;24.48;17.23;;;16.00;99.90;;;;;;5034940;28;20037;-88
2022/07/22 00:54:07;;;;;;;30.98;19.55;;;15.90;99.90;;;;;;5034071;28;20040;-88
2022/07/22 00:56:40;;;;;;;29.77;20.20;;;15.90;99.90;;;;;;5034437;28;20127;-88
2022/07/22 00:59:09;;;;;;;25.73;18.80;;;15.90;99.90;;;;;;5035399;28;20041;-88
2022/07/22 01:01:35;;;;;;;28.50;19.23;;;15.90;99.90;;;;;;5034689;28;20040;-88
2022/07/22 01:04:01;;;;;;;27.65;19.73;;;15.90;99.90;;;;;;5034842;28;20547;-87
2022/07/22 01:06:29;;;;;;;26.90;19.33;;;15.90;99.90;;;;;;5034593;28;20029;-88
2022/07/22 01:09:04;;;;;;;26.85;19.50;;;15.90;99.90;;;;;;5035447;28;20036;-88
2022/07/22 01:11:30;;;;;;;26.75;19.38;;;15.90;99.90;;;;;;5034927;28;20421;-87
2022/07/22 01:13:56;;;;;;;28.83;21.35;;;15.90;99.90;;;;;;5051631;28;20052;-88
2022/07/22 01:16:23;;;;;;;31.65;21.20;;;15.80;99.90;;;;;;5035797;28;20029;-88
2022/07/22 01:18:57;;;;;;;29.08;20.10;;;15.80;99.90;;;;;;5034624;28;20418;-87
2022/07/22 01:21:23;;;;;;;28.27;18.92;;;15.80;99.90;;;;;;5035143;28;20124;-87
2022/07/22 01:23:49;;;;;;;32.40;19.42;;;15.80;99.90;;;;;;5033848;28;20111;-88
2022/07/22 01:26:15;;;;;;;26.90;19.35;;;15.80;99.90;;;;;;5033897;28;20033;-88
2022/07/22 01:28:43;;;;;;;29.13;19.83;;;15.80;99.90;;;;;;5033591;28;20108;-88
2022/07/22 01:31:15;;;;;;;33.30;20.38;;;15.70;99.90;;;;;;5033384;28;20667;-89
2022/07/22 01:33:42;;;;;;;27.27;19.08;;;15.70;99.90;;;;;;5049794;28;20032;-88
2022/07/22 01:36:08;;;;;;;29.20;20.20;;;15.60;99.90;;;;;;5050996;28;20032;-88
2022/07/22 01:38:34;;;;;;;30.58;21.45;;;15.40;99.90;;;;;;5033427;28;20032;-87
2022/07/22 01:41:00;;;;;;;37.15;22.15;;;15.30;99.90;;;;;;5041433;28;20493;-88
2022/07/22 01:43:34;;;;;;;34.75;22.42;;;15.30;99.90;;;;;;5040838;28;20424;-88
2022/07/22 01:46:01;;;;;;;31.45;21.65;;;15.20;99.90;;;;;;5033859;28;20033;-88
2022/07/22 01:48:26;;;;;;;30.50;21.30;;;15.20;99.90;;;;;;5033708;28;20148;-88
2022/07/22 01:50:53;;;;;;;39.95;23.55;;;15.10;99.90;;;;;;5078849;22;24062;-89
2022/07/22 01:53:19;;;;;;;43.53;23.17;;;15.10;99.90;;;;;;5013854;28;20041;-88
2022/07/22 01:55:55;;;;;;;37.55;23.58;;;15.10;99.90;;;;;;5013784;28;20025;-88
2022/07/22 01:58:22;;;;;;;31.95;21.67;;;15.20;99.90;;;;;;5031324;28;20025;-88
2022/07/22 02:00:49;;;;;;;35.20;23.38;;;15.20;99.90;;;;;;5030301;28;20030;-88
2022/07/22 02:03:15;;;;;;;33.60;23.38;;;15.10;99.90;;;;;;5013972;28;20363;-87
2022/07/22 02:05:49;;;;;;;32.30;23.67;;;15.00;99.90;;;;;;5014741;28;20037;-88
2022/07/22 02:08:22;;;;;;;;;;;15.00;99.90;;;;;;5015873;28;20029;-88
2022/07/22 02:11:15;;;;;;;35.15;22.20;;;15.00;99.90;;;;;;5029082;28;19916;-88
2022/07/22 02:14:04;;;;;;;37.63;23.08;;;14.90;99.90;;;;;;5015805;28;20031;-88
2022/07/22 02:16:30;;;;;;;38.95;22.48;;;14.90;99.90;;;;;;5013363;28;20052;-88
2022/07/22 02:18:57;;;;;;;37.88;24.92;;;14.90;99.90;;;;;;5012468;28;20034;-88
2022/07/22 02:21:23;;;;;;;40.67;24.65;;;15.00;99.90;;;;;;5030264;28;20347;-88
2022/07/22 02:24:02;;;;;;;34.25;23.48;;;15.00;99.90;;;;;;5041993;28;20001;-90
2022/07/22 02:26:28;;;;;;;30.02;22.35;;;15.00;99.90;;;;;;5017408;28;20028;-88
2022/07/22 02:28:54;;;;;;;33.63;23.58;;;15.00;99.90;;;;;;5016299;28;20406;-89
2022/07/22 02:31:21;;;;;;;41.55;24.25;;;15.00;99.90;;;;;;5014224;28;20041;-89
2022/07/22 02:33:47;;;;;;;32.95;24.95;;;14.90;99.90;;;;;;5029549;28;20041;-89
2022/07/22 02:36:19;;;;;;;34.72;24.17;;;14.90;99.90;;;;;;5029441;28;20025;-88
2022/07/22 02:38:46;;;;;;;33.28;23.70;;;14.90;99.90;;;;;;5028234;28;20033;-89
2022/07/22 02:41:12;;;;;;;36.47;23.77;;;14.90;99.90;;;;;;5012600;28;20033;-88
2022/07/22 02:43:45;;;;;;;40.83;25.50;;;14.80;99.90;;;;;;5036857;23;20676;-88
2022/07/22 02:46:17;;;;;;;33.60;23.67;;;14.80;99.90;;;;;;5013999;28;20079;-88
2022/07/22 02:48:42;;;;;;;38.10;25.52;;;14.70;99.90;;;;;;5014202;28;20029;-88
2022/07/22 02:51:11;;;;;;;36.92;24.52;;;14.80;99.90;;;;;;5015080;28;20036;-88
2022/07/22 02:53:37;;;;;;;38.95;25.25;;;14.80;99.90;;;;;;5013123;28;20491;-87
2022/07/22 02:56:13;;;;;;;40.80;26.38;;;14.80;99.90;;;;;;5032101;28;20033;-87
2022/07/22 02:58:40;;;;;;;35.90;25.98;;;14.80;99.90;;;;;;5015410;28;20034;-87
2022/07/22 03:01:06;;;;;;;35.88;25.40;;;14.80;99.90;;;;;;5014648;28;20530;-88
2022/07/22 03:03:49;;;;;;;37.63;26.90;;;14.80;99.90;;;;;;5030813;28;20030;-87
2022/07/22 03:06:16;;;;;;;38.15;24.65;;;14.70;99.90;;;;;;5014609;28;20654;-89
2022/07/22 03:08:53;;;;;;;39.65;25.48;;;14.70;99.90;;;;;;5030300;28;20151;-88
2022/07/22 03:11:18;;;;;;;45.65;27.73;;;14.70;99.90;;;;;;5030674;28;20494;-88
2022/07/22 03:13:52;;;;;;;40.83;26.00;;;14.70;99.90;;;;;;5030707;28;20060;-87
2022/07/22 03:16:19;;;;;;;45.03;28.88;;;14.60;99.90;;;;;;5031340;28;20478;-87
2022/07/22 03:18:47;;;;;;;44.13;27.02;;;14.60;99.90;;;;;;5030023;28;20025;-89
2022/07/22 03:21:12;;;;;;;43.53;27.35;;;14.60;99.90;;;;;;5031685;28;20040;-88
2022/07/22 03:23:53;;;;;;;42.33;27.17;;;14.60;99.90;;;;;;5030297;28;20037;-88
2022/07/22 03:26:20;;;;;;;38.80;26.48;;;14.70;99.90;;;;;;5014807;28;20026;-88
2022/07/22 03:28:47;;;;;;;44.47;27.90;;;14.60;99.90;;;;;;5013945;28;20040;-89
2022/07/22 03:31:13;;;;;;;52.13;31.08;;;14.60;99.90;;;;;;5020560;28;20077;-88
2022/07/22 03:33:45;;;;;;;42.10;27.52;;;14.60;99.90;;;;;;5018522;28;20029;-88
2022/07/22 03:36:11;;;;;;;41.53;27.92;;;14.60;99.90;;;;;;5037127;28;20059;-90
2022/07/22 03:38:40;;;;;;;39.63;27.10;;;14.60;99.90;;;;;;5019261;28;20049;-88
2022/07/22 03:41:07;;;;;;;43.17;27.70;;;14.50;99.90;;;;;;5036533;28;20029;-87
2022/07/22 03:43:40;;;;;;;40.65;26.35;;;14.60;99.90;;;;;;5014401;28;20088;-88
2022/07/22 03:46:06;;;;;;;47.72;28.30;;;14.50;99.90;;;;;;5036794;28;20338;-88
2022/07/22 03:48:31;;;;;;;44.03;28.13;;;14.50;99.90;;;;;;5038158;28;20029;-89
2022/07/22 03:50:57;;;;;;;43.97;28.27;;;14.50;99.90;;;;;;5037324;28;20029;-88
2022/07/22 03:53:25;;;;;;;50.22;29.85;;;14.50;99.90;;;;;;5038526;28;20030;-91
2022/07/22 03:56:02;;;;;;;48.65;27.60;;;14.60;99.90;;;;;;5039437;28;20025;-86
2022/07/22 03:58:40;;;;;;;49.50;27.58;;;14.60;99.90;;;;;;5054993;28;20033;-88
2022/07/22 04:01:05;;;;;;;42.35;28.45;;;14.60;99.90;;;;;;5038549;28;20048;-91
2022/07/22 04:03:39;;;;;;;43.90;27.40;;;14.60;99.90;;;;;;5052460;28;20033;-88
2022/07/22 04:06:34;;;;;;;43.03;28.25;;;14.70;99.90;;;;;;5046271;28;20084;-88
2022/07/22 04:09:07;;;;;;;44.45;27.17;;;14.70;99.90;;;;;;5026894;28;20025;-88
2022/07/22 04:11:34;;;;;;;47.00;29.33;;;14.70;99.90;;;;;;5023763;28;20037;-88
2022/07/22 04:14:10;;;;;;;;;;;;;;;;;;;;;
2022/07/22 04:16:36;;;;;;;48.97;29.60;;;14.70;99.90;;;;;;5041326;28;20033;-90
2022/07/22 04:19:10;;;;;;;43.58;28.42;;;14.70;99.90;;;;;;5026014;28;20057;-87
2022/07/22 04:21:56;;;;;;;50.88;28.65;;;14.80;99.90;;;;;;5026753;28;20112;-87
2022/07/22 04:24:25;;;;;;;43.83;28.13;;;14.70;99.90;;;;;;5023093;28;20033;-88
2022/07/22 04:26:53;;;;;;;43.95;28.17;;;14.80;99.90;;;;;;5025474;28;20053;-89
2022/07/22 04:29:24;;;;;;;47.30;27.08;;;14.90;99.90;;;;;;5033681;28;20028;-90
2022/07/22 04:31:51;;;;;;;44.92;27.17;;;14.90;99.90;;;;;;5039187;28;20025;-88
2022/07/22 04:34:19;;;;;;;41.22;25.63;;;15.00;99.90;;;;;;5038320;28;20089;-90
2022/07/22 04:36:46;;;;;;;48.53;28.23;;;15.00;99.90;;;;;;5039525;28;20022;-90
2022/07/22 04:39:21;;;;;;;43.28;25.88;;;15.10;99.90;;;;;;5039318;28;20025;-89
2022/07/22 04:41:53;;;;;;;43.40;26.33;;;15.10;99.90;;;;;;5038784;28;20084;-90
2022/07/22 04:44:20;;;;;;;39.75;25.25;;;15.20;99.90;;;;;;5038757;28;20068;-90
2022/07/22 04:46:46;;;;;;;39.55;25.92;;;15.20;99.90;;;;;;5042362;23;20034;-88
2022/07/22 04:49:12;;;;;;;39.10;25.50;;;15.20;99.90;;;;;;5018310;28;20362;-88
2022/07/22 04:51:37;;;;;;;40.95;25.70;;;15.30;99.90;;;;;;5034297;28;20037;-88
2022/07/22 04:54:05;;;;;;;39.92;23.25;;;15.40;99.90;;;;;;5033870;28;20065;-87
2022/07/22 04:56:35;;;;;;;34.55;22.83;;;15.40;99.90;;;;;;5034128;28;20121;-87
2022/07/22 04:59:01;;;;;;;37.17;23.85;;;15.50;99.90;;;;;;5017804;28;20076;-88
2022/07/22 05:01:33;;;;;;;40.00;25.13;;;15.50;99.90;;;;;;5033749;28;20033;-88
2022/07/22 05:04:01;;;;;;;40.22;26.08;;;15.50;99.90;;;;;;5033839;28;20063;-87
2022/07/22 05:06:27;;;;;;;33.08;23.33;;;15.60;99.90;;;;;;5017121;28;20493;-87
2022/07/22 05:08:54;;;;;;;37.05;23.13;;;15.60;99.90;;;;;;5016654;28;20021;-88
2022/07/22 05:11:19;;;;;;;43.55;24.85;;;15.60;99.90;;;;;;5017443;28;20033;-87
2022/07/22 05:13:46;;;;;;;33.20;22.67;;;15.70;99.90;;;;;;5033650;28;20029;-87
2022/07/22 05:16:13;;;;;;;33.42;22.10;;;15.70;99.90;;;;;;5019061;28;20458;-87
2022/07/22 05:18:39;;;;;;;31.15;21.58;;;15.70;99.90;;;;;;5017477;28;20029;-87
2022/07/22 05:21:07;;;;;;;33.05;21.25;;;15.80;99.90;;;;;;5033628;28;20043;-87
2022/07/22 05:23:33;;;;;;;31.27;20.73;;;15.80;99.90;;;;;;5033455;28;20033;-87
2022/07/22 05:26:00;;;;;;;32.40;20.63;;;15.90;99.90;;;;;;5017225;28;20037;-87
2022/07/22 05:28:26;;;;;;;30.83;20.40;;;16.00;99.90;;;;;;5033614;28;20508;-87
2022/07/22 05:30:52;;;;;;;26.70;19.08;;;16.00;99.90;;;;;;5033465;28;20121;-87
2022/07/22 05:33:19;;;;;;;29.67;19.25;;;16.10;99.90;;;;;;5016723;28;20073;-88
2022/07/22 05:36:05;;;;;;;27.77;18.40;;;16.10;99.90;;;;;;5033683;28;20041;-87
2022/07/22 05:38:36;;;;;;;26.98;17.42;;;16.10;99.90;;;;;;5018030;28;20036;-90
2022/07/22 05:41:04;;;;;;;30.15;18.90;;;16.20;99.90;;;;;;5033306;28;20562;-88
2022/07/22 05:43:30;;;;;;;28.67;18.23;;;16.20;99.90;;;;;;5017038;28;20025;-88
2022/07/22 05:45:56;;;;;;;26.90;16.63;;;16.30;99.90;;;;;;5017097;28;20029;-89
2022/07/22 05:48:22;;;;;;;22.67;17.02;;;16.40;99.90;;;;;;5017312;28;20036;-88
2022/07/22 05:50:48;;;;;;;22.85;17.08;;;16.40;99.90;;;;;;5017471;28;20384;-87
2022/07/22 05:53:14;;;;;;;28.75;16.75;;;16.40;99.90;;;;;;5033189;28;20033;-88
2022/07/22 05:55:41;;;;;;;29.30;17.13;;;16.50;99.90;;;;;;5016964;28;20041;-88
2022/07/22 05:58:07;;;;;;;22.65;16.52;;;16.50;99.90;;;;;;5017101;28;20053;-88
2022/07/22 06:00:32;;;;;;;24.02;16.63;;;16.60;99.90;;;;;;5016886;28;20033;-88
2022/07/22 06:02:59;;;;;;;26.02;16.00;;;16.70;99.90;;;;;;5033086;28;20021;-88
2022/07/22 06:05:25;;;;;;;21.45;15.70;;;16.70;99.90;;;;;;5016802;28;20050;-88
2022/07/22 06:07:52;;;;;;;23.85;15.57;;;16.80;99.90;;;;;;5033394;28;20026;-87
2022/07/22 06:10:34;;;;;;;22.10;16.08;;;16.70;99.90;;;;;;5019339;28;20448;-88
2022/07/22 06:13:00;;;;;;;22.00;15.05;;;16.90;99.90;;;;;;5014063;28;20068;-88
2022/07/22 06:15:26;;;;;;;21.35;14.85;;;16.90;99.90;;;;;;5032800;28;20029;-88
2022/07/22 06:17:52;;;;;;;20.92;14.02;;;17.00;99.90;;;;;;5015893;28;20033;-88
2022/07/22 06:20:18;;;;;;;22.52;15.70;;;17.10;99.90;;;;;;5031817;28;20079;-87
2022/07/22 06:22:44;;;;;;;23.63;13.98;;;17.20;99.90;;;;;;5031992;28;20043;-87
2022/07/22 06:25:10;;;;;;;19.75;14.35;;;17.30;99.90;;;;;;5016018;28;20543;-87
2022/07/22 06:27:36;;;;;;;18.83;13.32;;;17.30;99.90;;;;;;5016000;28;20058;-87
2022/07/22 06:30:06;;;;;;;19.60;13.40;;;17.40;99.90;;;;;;5016159;28;20124;-88
2022/07/22 06:32:32;;;;;;;24.40;14.52;;;17.40;99.90;;;;;;5016461;28;20088;-86
2022/07/22 06:34:58;;;;;;;19.05;12.90;;;17.50;99.90;;;;;;5031820;28;20068;-87
2022/07/22 06:37:24;;;;;;;22.88;13.95;;;17.50;99.90;;;;;;5015641;28;20057;-87
2022/07/22 06:39:50;;;;;;;23.42;14.40;;;17.60;99.90;;;;;;5015707;28;20021;-88
2022/07/22 06:42:19;;;;;;;21.38;13.52;;;17.80;99.90;;;;;;5016067;28;20029;-87
2022/07/22 06:45:13;;;;;;;16.48;12.18;;;17.90;99.90;;;;;;5013518;28;20112;-88
2022/07/22 06:47:42;;;;;;;14.63;11.07;;;18.00;99.90;;;;;;5031979;28;20037;-87
2022/07/22 06:50:10;;;;;;;22.45;12.10;;;18.10;99.90;;;;;;5015950;28;20113;-87
2022/07/22 06:52:40;;;;;;;16.23;12.10;;;18.20;99.90;;;;;;5015410;28;20057;-86
2022/07/22 06:55:07;;;;;;;16.50;11.60;;;18.30;99.90;;;;;;5030751;28;20087;-88
2022/07/22 06:57:37;;;;;;;20.08;13.18;;;18.40;99.90;;;;;;5015770;28;20566;-87
2022/07/22 07:00:06;;;;;;;16.38;12.02;;;18.50;99.90;;;;;;5031631;28;20048;-88
2022/07/22 07:02:33;;;;;;;19.42;12.63;;;18.60;99.90;;;;;;5015335;28;20092;-87
2022/07/22 07:04:59;;;;;;;17.05;13.55;;;18.60;99.90;;;;;;5014205;28;20141;-88
2022/07/22 07:07:25;;;;;;;16.40;11.48;;;18.70;99.90;;;;;;5031931;28;20029;-87
2022/07/22 07:09:59;;;;;;;15.15;11.65;;;18.80;99.90;;;;;;5016492;28;20072;-88
2022/07/22 07:12:34;;;;;;;17.90;11.60;;;18.90;99.90;;;;;;5016579;28;20079;-87
2022/07/22 07:15:18;;;;;;;17.77;13.30;;;19.10;99.90;;;;;;5017604;28;20033;-87
2022/07/22 07:17:43;;;;;;;18.17;12.63;;;19.20;99.90;;;;;;5031776;28;20033;-87
2022/07/22 07:20:14;;;;;;;18.92;12.85;;;19.30;99.90;;;;;;5031507;28;20026;-87
2022/07/22 07:22:39;;;;;;;20.45;12.95;;;19.40;99.90;;;;;;5015059;28;20033;-86
2022/07/22 07:25:08;;;;;;;17.30;12.18;;;19.40;99.90;;;;;;5031201;28;20037;-87
2022/07/22 07:27:34;;;;;;;18.73;12.65;;;19.50;99.90;;;;;;5015351;28;20481;-87
2022/07/22 07:30:04;;;;;;;21.80;12.55;;;19.60;99.90;;;;;;5015079;28;20053;-87
2022/07/22 07:32:30;;;;;;;15.32;12.40;;;19.60;99.90;;;;;;5014167;28;20036;-87
2022/07/22 07:34:56;;;;;;;18.70;11.73;;;19.60;99.90;;;;;;5014551;28;20033;-87
2022/07/22 07:37:23;;;;;;;19.63;12.90;;;19.60;99.90;;;;;;5015222;28;20397;-88
2022/07/22 07:39:49;;;;;;;18.80;12.43;;;19.70;99.90;;;;;;5015230;28;20033;-87
2022/07/22 07:42:15;;;;;;;16.80;10.75;;;19.80;99.90;;;;;;5015116;28;20507;-87
2022/07/22 07:44:41;;;;;;;15.30;12.30;;;19.90;99.90;;;;;;5014859;28;20116;-87
2022/07/22 07:47:06;;;;;;;17.88;11.60;;;20.10;99.90;;;;;;5031526;28;20041;-86
2022/07/22 07:49:32;;;;;;;19.00;13.63;;;20.20;99.90;;;;;;5015254;28;20032;-86
2022/07/22 07:51:58;;;;;;;16.83;12.15;;;20.20;99.90;;;;;;5014977;28;20029;-87
2022/07/22 07:54:24;;;;;;;14.52;11.88;;;20.20;99.90;;;;;;5014867;28;20029;-85
2022/07/22 07:56:50;;;;;;;14.98;9.93;;;20.80;99.90;;;;;;5031623;28;20033;-89
2022/07/22 07:59:16;;;;;;;15.60;9.38;;;22.40;99.90;;;;;;5031806;28;20075;-90
2022/07/22 08:01:44;;;;;;;14.35;8.73;;;24.30;99.90;;;;;;5031835;28;20038;-89
2022/07/22 08:04:10;;;;;;;13.95;10.15;;;26.20;99.90;;;;;;5031976;28;20029;-90
2022/07/22 08:06:36;;;;;;;11.75;9.60;;;26.00;99.90;;;;;;5015599;28;20032;-89
2022/07/22 08:09:02;;;;;;;10.57;8.70;;;26.20;99.90;;;;;;5030971;28;20032;-90
2022/07/22 08:11:34;;;;;;;9.65;7.50;;;26.90;99.90;;;;;;5031479;28;20040;-89
2022/07/22 08:14:23;;;;;;;12.77;9.27;;;27.60;99.90;;;;;;5030758;28;20056;-90
2022/07/22 08:17:24;;;;;;;12.20;8.13;;;28.80;99.90;;;;;;5001972;28;20034;-90
2022/07/22 08:19:50;;;;;;;9.20;7.82;;;29.80;99.90;;;;;;5010661;28;20052;-89
2022/07/22 08:22:16;;;;;;;13.70;9.00;;;29.70;99.90;;;;;;5036287;28;20033;-89
2022/07/22 08:24:44;;;;;;;12.57;8.40;;;29.80;99.90;;;;;;5034835;28;20025;-90
2022/07/22 08:27:14;;;;;;;11.93;8.75;;;29.80;99.90;;;;;;5035325;28;20021;-89
2022/07/22 08:29:40;;;;;;;15.68;8.23;;;30.10;99.90;;;;;;5035346;28;20485;-90
2022/07/22 08:32:06;;;;;;;18.10;10.13;;;30.30;99.90;;;;;;5019085;28;20029;-90
2022/07/22 08:34:32;;;;;;;11.20;9.25;;;30.20;99.90;;;;;;5034848;28;20044;-89
2022/07/22 08:36:58;;;;;;;11.48;9.27;;;30.00;99.90;;;;;;5018375;28;20030;-90
2022/07/22 08:39:24;;;;;;;15.35;9.68;;;29.00;99.90;;;;;;5018725;28;20539;-89
2022/07/22 08:41:51;;;;;;;10.88;9.40;;;29.00;99.90;;;;;;5018439;28;20033;-90
2022/07/22 08:44:17;;;;;;;12.60;8.60;;;29.50;99.90;;;;;;5033825;28;20040;-90
2022/07/22 08:46:45;;;;;;;13.23;8.60;;;29.70;99.90;;;;;;5034060;28;20118;-91
2022/07/22 08:49:20;;;;;;;11.52;9.15;;;30.30;99.90;;;;;;5034821;28;20699;-90
2022/07/22 08:52:14;;;;;;;12.57;8.55;;;30.20;99.90;;;;;;5022140;28;20493;-90
2022/07/22 08:54:46;;;;;;;12.40;9.02;;;30.70;99.90;;;;;;5018435;28;20103;-90
2022/07/22 08:57:13;;;;;;;13.30;8.38;;;30.90;99.70;;;;;;5034393;28;20120;-90
2022/07/22 08:59:54;;;;;;;12.05;9.32;;;31.60;98.20;;;;;;5034290;28;20125;-90
2022/07/22 09:02:21;;;;;;;13.23;8.15;;;31.60;96.50;;;;;;5017274;28;20029;-90
2022/07/22 09:05:02;;;;;;;15.25;8.65;;;31.80;96.70;;;;;;5017321;28;20041;-89
2022/07/22 09:07:35;;;;;;;11.20;8.82;;;31.90;95.60;;;;;;5034190;28;20551;-90
2022/07/22 09:10:13;;;;;;;9.27;7.70;;;31.80;94.60;;;;;;5018744;28;20770;-90
2022/07/22 09:13:00;;;;;;;12.32;9.00;;;31.50;94.30;;;;;;5035040;28;20555;-90
2022/07/22 09:15:55;;;;;;;10.35;8.50;;;31.70;94.20;;;;;;5021138;28;20093;-90
2022/07/22 09:18:51;;;;;;;9.07;7.57;;;32.00;94.10;;;;;;5033681;28;20119;-89
2022/07/22 09:21:30;;;;;;;11.68;8.73;;;31.60;93.60;;;;;;5034110;28;20455;-89
2022/07/22 09:24:09;;;;;;;9.68;8.65;;;31.70;93.00;;;;;;5019054;28;20021;-89
2022/07/22 09:26:38;;;;;;;10.55;8.18;;;32.20;92.50;;;;;;5017364;28;20055;-89
2022/07/22 09:29:24;;;;;;;14.50;9.13;;;32.10;92.00;;;;;;5033580;28;20025;-89
2022/07/22 09:32:10;;;;;;;9.70;8.50;;;32.10;91.10;;;;;;5034013;28;20036;-90
2022/07/22 09:34:48;;;;;;;11.25;8.93;;;31.70;91.20;;;;;;5033850;28;20033;-90
2022/07/22 09:37:22;;;;;;;15.70;8.45;;;31.60;91.40;;;;;;5018733;28;20035;-89
2022/07/22 09:39:48;;;;;;;11.48;9.93;;;31.70;91.90;;;;;;5016955;28;20033;-90
2022/07/22 09:42:16;;;;;;;8.45;7.38;;;32.40;90.80;;;;;;5033556;28;20029;-90
2022/07/22 09:44:42;;;;;;;11.68;8.27;;;33.10;90.30;;;;;;5016591;28;20084;-90
2022/07/22 09:47:28;;;;;;;9.15;8.18;;;33.90;85.50;;;;;;5017524;28;20064;-90
2022/07/22 09:50:33;;;;;;;10.30;7.72;;;33.90;85.50;;;;;;5029562;28;20029;-90
2022/07/22 09:53:26;;;;;;;12.15;8.05;;;34.60;83.40;;;;;;5029886;28;20037;-90
2022/07/22 09:56:15;;;;;;;10.25;7.63;;;34.50;81.70;;;;;;5019657;28;20063;-90
2022/07/22 09:58:42;;;;;;;9.25;7.07;;;34.70;80.10;;;;;;5016793;28;20029;-90
2022/07/22 10:01:16;;;;;;;14.40;7.45;;;34.80;80.00;;;;;;5033289;28;20029;-90
2022/07/22 10:03:43;;;;;;;8.65;7.55;;;34.00;79.70;;;;;;5033307;28;20112;-90
2022/07/22 10:06:10;;;;;;;11.05;8.32;;;33.00;81.80;;;;;;5015939;28;20035;-89
2022/07/22 10:08:37;;;;;;;12.93;8.15;;;33.20;83.00;;;;;;5016867;28;20117;-90
2022/07/22 10:11:06;;;;;;;11.32;7.85;;;32.30;81.70;;;;;;5033097;28;20111;-90
2022/07/22 10:13:34;;;;;;;12.63;7.78;;;31.90;83.50;;;;;;5032331;28;20029;-91
2022/07/22 10:16:03;;;;;;;14.15;10.00;;;32.00;84.80;;;;;;5017163;28;20037;-90
2022/07/22 10:18:30;;;;;;;12.50;8.27;;;32.00;83.70;;;;;;5016496;28;20033;-90
2022/07/22 10:21:05;;;;;;;11.18;7.40;;;31.80;82.30;;;;;;5033049;28;20112;-90
2022/07/22 10:23:32;;;;;;;12.35;7.82;;;31.70;82.20;;;;;;5017181;28;20025;-90
2022/07/22 10:26:00;;;;;;;13.90;8.43;;;31.80;83.10;;;;;;5033174;28;20035;-90
2022/07/22 10:28:32;;;;;;;11.40;8.30;;;30.80;83.50;;;;;;5016466;28;20040;-90
2022/07/22 10:31:23;;;;;;;8.50;7.55;;;30.10;85.70;;;;;;5034536;28;20037;-89
2022/07/22 10:33:52;;;;;;;9.32;7.47;;;29.60;84.90;;;;;;5016040;28;20441;-89
2022/07/22 10:36:47;;;;;;;12.20;8.15;;;29.50;86.20;;;;;;5016353;28;20045;-89
2022/07/22 10:39:14;;;;;;;10.32;8.00;;;29.80;86.80;;;;;;5023550;28;20048;-90
2022/07/22 10:41:45;;;;;;;10.50;7.47;;;29.60;87.90;;;;;;5015874;28;20820;-90
2022/07/22 10:44:11;;;;;;;;;;;29.70;88.30;;;;;;5016056;28;20128;-90
2022/07/22 10:46:50;;;;;;;11.02;8.20;;;29.60;87.70;;;;;;5033105;28;20407;-89
2022/07/22 10:49:18;;;;;;;10.77;8.07;;;29.00;89.80;;;;;;5032274;28;20040;-89
2022/07/22 10:52:06;;;;;;;14.48;8.10;;;29.30;88.70;;;;;;5032137;28;20073;-89
2022/07/22 10:54:32;;;;;;;12.90;9.10;;;29.90;87.60;;;;;;5015189;28;20025;-90
2022/07/22 10:57:00;;;;;;;12.15;8.90;;;29.40;88.80;;;;;;5032050;28;20052;-89
2022/07/22 10:59:26;;;;;;;8.25;7.22;;;29.70;88.30;;;;;;5032199;28;20037;-90
2022/07/22 11:01:54;;;;;;;10.80;7.35;;;30.20;86.50;;;;;;5032986;28;20084;-90
2022/07/22 11:04:23;;;;;;;10.27;7.22;;;30.60;86.30;;;;;;5015323;28;20385;-90
2022/07/22 11:06:51;;;;;;;11.82;7.10;;;31.40;86.90;;;;;;5016055;28;20076;-90
2022/07/22 11:09:19;;;;;;;8.60;7.50;;;31.50;85.20;;;;;;5030728;28;20033;-90
2022/07/22 11:11:55;;;;;;;9.25;7.00;;;31.60;83.60;;;;;;5015764;28;20022;-89
2022/07/22 11:14:25;;;;;;;8.50;7.65;;;31.60;82.40;;;;;;5033325;28;20033;-90
2022/07/22 11:16:52;;;;;;;10.80;6.93;;;31.60;82.50;;;;;;5032259;28;20033;-90
2022/07/22 11:19:28;;;;;;;8.57;6.93;;;31.80;83.60;;;;;;5033115;28;20034;-90
2022/07/22 11:21:56;;;;;;;8.43;6.82;;;31.80;82.30;;;;;;5015974;28;20037;-90
2022/07/22 11:24:23;;;;;;;8.00;6.05;;;32.00;81.40;;;;;;5031278;28;20021;-90
2022/07/22 11:26:52;;;;;;;8.60;5.50;;;32.00;77.80;;;;;;5015083;28;20040;-90
2022/07/22 11:29:35;;;;;;;7.53;5.95;;;32.10;76.60;;;;;;5031712;28;20038;-90
2022/07/22 11:32:08;;;;;;;9.52;5.90;;;32.00;78.50;;;;;;5031842;28;20038;-91
2022/07/22 11:34:42;;;;;;;7.45;5.93;;;32.30;77.00;;;;;;5032706;28;20064;-90
2022/07/22 11:37:08;;;;;;;11.60;6.43;;;32.60;77.40;;;;;;5031734;28;20437;-90
2022/07/22 11:39:34;;;;;;;7.75;5.93;;;32.40;76.20;;;;;;5032798;28;20057;-90
2022/07/22 11:42:00;;;;;;;8.48;5.82;;;32.60;75.00;;;;;;5031214;28;20079;-90
2022/07/22 11:44:28;;;;;;;8.38;6.47;;;32.80;75.50;;;;;;5031192;28;20040;-90
2022/07/22 11:46:58;;;;;;;7.00;5.95;;;33.00;73.30;;;;;;5015268;28;20033;-90
2022/07/22 11:49:25;;;;;;;8.73;6.13;;;32.70;73.90;;;;;;5015150;28;20040;-90
2022/07/22 11:51:51;;;;;;;14.95;7.38;;;32.90;73.10;;;;;;5017921;28;20167;-90
2022/07/22 11:54:17;;;;;;;11.80;6.95;;;32.70;74.00;;;;;;5035003;28;20606;-90
2022/07/22 11:56:43;;;;;;;10.02;6.20;;;32.60;75.40;;;;;;5035625;28;20065;-90
2022/07/22 11:59:13;;;;;;;7.47;6.07;;;32.20;75.40;;;;;;5036333;28;20155;-90
2022/07/22 12:01:40;;;;;;;7.57;6.15;;;32.30;76.30;;;;;;5018293;28;20033;-90
2022/07/22 12:04:11;;;;;;;8.10;6.40;;;32.50;77.30;;;;;;5034819;28;20029;-90
2022/07/22 12:06:40;;;;;;;10.48;6.75;;;31.80;76.90;;;;;;5018481;28;20040;-90
2022/07/22 12:09:12;;;;;;;8.02;6.03;;;31.10;75.40;;;;;;5034657;28;20056;-90
2022/07/22 12:11:40;;;;;;;9.40;6.20;;;30.60;77.10;;;;;;5035219;28;20033;-89
2022/07/22 12:14:09;;;;;;;7.05;5.95;;;30.40;76.90;;;;;;5035291;28;20109;-89
2022/07/22 12:16:36;;;;;;;9.82;6.20;;;30.40;79.00;;;;;;5017536;28;20032;-90
2022/07/22 12:19:06;;;;;;;9.15;5.55;;;30.70;77.60;;;;;;5018008;28;20037;-89
2022/07/22 12:21:35;;;;;;;9.35;5.70;;;31.00;78.00;;;;;;5034404;28;20786;-89
2022/07/22 12:24:04;;;;;;;10.48;5.05;;;31.10;76.50;;;;;;5018057;28;20378;-90
2022/07/22 12:26:50;;;;;;;8.05;5.78;;;30.90;75.40;;;;;;5034538;28;20389;-89
2022/07/22 12:29:30;;;;;;;7.28;5.93;;;31.20;77.00;;;;;;5035750;28;20045;-88
2022/07/22 12:32:01;;;;;;;14.65;5.90;;;31.30;75.20;;;;;;5017991;28;20034;-88
2022/07/22 12:34:45;;;;;;;7.35;5.65;;;30.70;74.10;;;;;;5033859;28;20030;-88
2022/07/22 12:37:27;;;;;;;7.80;5.65;;;30.90;78.50;;;;;;5034693;28;20464;-90
2022/07/22 12:39:59;;;;;;;9.02;6.65;;;30.80;76.10;;;;;;5034662;28;20563;-93
2022/07/22 12:42:27;;;;;;;7.28;5.97;;;30.30;77.50;;;;;;5017978;28;20132;-92
2022/07/22 12:45:14;;;;;;;11.05;5.95;;;30.30;77.70;;;;;;5017565;28;20068;-92
2022/07/22 12:48:03;;;;;;;7.65;5.68;;;30.60;76.70;;;;;;5017549;28;20132;-92
2022/07/22 12:50:32;;;;;;;10.45;6.25;;;31.30;75.00;;;;;;5028727;28;20152;-90